KART/ART METAR and TAF weather

Enter ICAO airport designator
Station Type Date Time Source
KART METAR 2020/02/24 22:56 UTC NOAA

KART 242256Z AUTO 00000KT 8SM CLR 04/M01 A2991 RMK AO2 SLP131 T00441011


Station Type Date Time Source
KART Decoded METAR 2020/02/24 22:56 UTC NOAA

WATERTOWN INTERNATIONAL AIRPORT, NY, United States (KART) 43-59N 076-02W 100M
Feb 24, 2020 - 05:56 PM EST / 2020.02.24 2256 UTC
Wind: Calm:0
Visibility: 8 mile(s):0
Sky conditions: clear
Temperature: 39.9 F (4.4 C)
Dew Point: 30.0 F (-1.1 C)
Relative Humidity: 67%
Pressure (altimeter): 29.91 in. Hg (1012 hPa)
ob: KART 242256Z AUTO 00000KT 8SM CLR 04/M01 A2991 RMK AO2 SLP131 T00441011
cycle: 23

Station Type Date Time Source
KART TAF 2020/02/24 21:12 UTC NOAA

TAF
AMD KART 242111Z 2421/2518 22007KT P6SM SCT250
FM242200 20004KT P6SM BKN200
FM250300 VRB03KT P6SM BKN120
FM251100 04005KT P6SM BKN090
FM251500 03007KT P6SM BKN060

Example: see airport list